Time;durP1;ratioP1;P1;durP2;ratioP2;P2;SDS_P1;SDS_P2;PMS_P1;PMS_P2;Temp;Humidity;BMP_temperature;BMP_pressure;BME280_temperature;BME280_humidity;BME280_pressure;Samples;Min_cycle;Max_cycle;Signal;HPM_P1;HPM_P2
2022/09/22 00:01:52;;;;;;;27.33;19.30;;;;;;;7.46;100.00;102157.66;5042573;28;20040;-78
2022/09/22 00:04:19;;;;;;;31.05;20.17;;;;;;;7.43;100.00;102151.44;5017428;28;20040;-78
2022/09/22 00:06:56;;;;;;;29.13;19.27;;;;;;;7.47;100.00;102153.09;5026915;28;20410;-78
2022/09/22 00:09:24;;;;;;;25.17;19.60;;;;;;;7.48;100.00;102150.31;5038376;28;20035;-78
2022/09/22 00:11:58;;;;;;;26.30;18.90;;;;;;;7.52;100.00;102151.03;5060976;28;20120;-79
2022/09/22 00:14:26;;;;;;;31.63;18.48;;;;;;;7.63;100.00;102156.03;5058761;28;20051;-78
2022/09/22 00:17:03;;;;;;;27.13;18.92;;;;;;;7.63;100.00;102150.56;5076423;28;20032;-78
2022/09/22 00:19:31;;;;;;;29.40;18.70;;;;;;;7.66;100.00;102158.63;5075876;28;20028;-78
2022/09/22 00:21:58;;;;;;;23.95;18.42;;;;;;;7.56;100.00;102141.78;5058034;28;20040;-78
2022/09/22 00:24:31;;;;;;;;;;;;;;;7.54;100.00;102150.03;5058221;28;20435;-78
2022/09/22 00:26:59;;;;;;;22.95;18.17;;;;;;;7.44;100.00;102158.69;5039402;28;20272;-77
2022/09/22 00:29:30;;;;;;;30.52;20.15;;;;;;;7.26;100.00;102133.16;5055684;28;20030;-76
2022/09/22 00:31:56;;;;;;;23.70;19.65;;;;;;;7.32;100.00;102150.09;5027686;28;20139;-77
2022/09/22 00:34:25;;;;;;;26.15;19.60;;;;;;;7.18;100.00;102148.00;5055780;28;20108;-77
2022/09/22 00:36:52;;;;;;;27.70;18.75;;;;;;;7.21;100.00;102149.69;5043783;28;20021;-77
2022/09/22 00:39:18;;;;;;;26.95;19.05;;;;;;;7.23;100.00;102155.06;5062681;28;20375;-77
2022/09/22 00:41:50;;;;;;;23.63;19.00;;;;;;;7.09;100.00;102142.94;5071692;28;20233;-77
2022/09/22 00:44:26;;;;;;;31.10;20.77;;;;;;;7.10;100.00;102146.53;5068365;28;20036;-77
2022/09/22 00:47:15;;;;;;;27.27;19.13;;;;;;;7.13;100.00;102151.88;5061818;28;20025;-77
2022/09/22 00:49:47;;;;;;;26.95;19.92;;;;;;;7.09;100.00;102150.25;5038460;28;20059;-77
2022/09/22 00:52:20;;;;;;;32.38;19.63;;;;;;;7.09;100.00;102133.91;5051243;28;20426;-77
2022/09/22 00:54:57;;;;;;;23.48;18.33;;;;;;;7.16;100.00;102127.22;5067168;28;20036;-77
2022/09/22 00:57:27;;;;;;;26.90;18.48;;;;;;;7.20;100.00;102137.03;5039781;28;20379;-78
2022/09/22 00:59:55;;;;;;;29.27;19.47;;;;;;;7.09;100.00;102140.22;5057222;28;20407;-79
2022/09/22 01:02:26;;;;;;;23.15;18.02;;;;;;;7.04;100.00;102134.09;5054219;28;20040;-77
2022/09/22 01:04:53;;;;;;;24.08;18.60;;;;;;;7.08;100.00;102113.06;5056458;28;20028;-77
2022/09/22 01:07:22;;;;;;;34.13;18.77;;;;;;;7.16;100.00;102124.50;5056571;28;20037;-77
2022/09/22 01:10:00;;;;;;;37.22;20.30;;;;;;;7.08;100.00;102129.41;5040230;28;20017;-77
2022/09/22 01:12:37;;;;;;;30.60;20.25;;;;;;;7.06;100.00;102121.28;5041694;28;20044;-77
2022/09/22 01:15:23;;;;;;;23.70;18.13;;;;;;;7.04;100.00;102119.59;5050745;28;20029;-77
2022/09/22 01:18:20;;;;;;;26.02;19.73;;;;;;;6.98;100.00;102115.28;5046564;28;20032;-77
2022/09/22 01:21:19;;;;;;;28.73;19.83;;;;;;;6.91;100.00;102119.25;5043587;28;20082;-77
2022/09/22 01:24:17;;;;;;;24.77;18.77;;;;;;;6.90;100.00;102112.03;5059064;28;21241;-77
2022/09/22 01:26:48;;;;;;;28.95;18.52;;;;;;;6.87;100.00;102113.06;5068305;28;20029;-77
2022/09/22 01:29:29;;;;;;;28.33;18.42;;;;;;;6.80;100.00;102108.81;5066177;28;20039;-77
2022/09/22 01:32:25;;;;;;;28.50;21.08;;;;;;;6.87;100.00;102114.88;5058885;28;20025;-77
2022/09/22 01:35:12;;;;;;;28.10;19.00;;;;;;;6.77;100.00;102104.41;5054079;28;20059;-78
2022/09/22 01:37:45;;;;;;;28.42;18.25;;;;;;;6.76;100.00;102104.47;5067264;28;20037;-78
2022/09/22 01:40:28;;;;;;;28.67;19.67;;;;;;;6.70;100.00;102102.88;5056025;28;20059;-78
2022/09/22 01:43:27;;;;;;;28.20;18.88;;;;;;;6.89;100.00;102092.09;5080797;28;20036;-78
2022/09/22 01:46:00;;;;;;;26.75;19.05;;;;;;;6.82;100.00;102101.47;5063409;28;20048;-78
2022/09/22 01:48:34;;;;;;;33.58;19.70;;;;;;;6.79;100.00;102097.06;5049859;28;20016;-78
2022/09/22 01:51:13;;;;;;;24.85;18.50;;;;;;;6.74;100.00;102090.94;5047402;28;20028;-78
2022/09/22 01:53:46;;;;;;;25.10;19.20;;;;;;;6.72;100.00;102097.38;5080667;28;20021;-78
2022/09/22 01:56:20;;;;;;;29.58;20.83;;;;;;;6.72;100.00;102087.41;5057216;28;20043;-78
2022/09/22 01:58:55;;;;;;;31.67;20.27;;;;;;;6.74;100.00;102096.38;5068602;28;20120;-77
2022/09/22 02:01:29;;;;;;;32.38;20.20;;;;;;;6.60;100.00;102086.06;5067469;28;20036;-78
2022/09/22 02:04:28;;;;;;;26.75;18.73;;;;;;;6.65;100.00;102085.88;5040924;28;20068;-78
2022/09/22 02:07:02;;;;;;;26.70;19.23;;;;;;;6.57;100.00;102079.88;5074383;28;20535;-78
2022/09/22 02:09:31;;;;;;;26.75;20.67;;;;;;;6.55;100.00;102085.38;5052503;28;20044;-78
2022/09/22 02:12:02;;;;;;;29.42;20.35;;;;;;;6.59;100.00;102078.88;5055719;28;20467;-77
2022/09/22 02:14:31;;;;;;;29.58;20.80;;;;;;;6.66;100.00;102070.41;5054882;28;20025;-77
2022/09/22 02:17:01;;;;;;;29.63;19.85;;;;;;;6.68;100.00;102074.84;5052655;28;20039;-77
2022/09/22 02:19:38;;;;;;;27.20;19.77;;;;;;;6.65;100.00;102068.66;5076246;28;20028;-77
2022/09/22 02:22:12;;;;;;;26.83;19.42;;;;;;;6.63;100.00;102072.31;5077239;28;20428;-78
2022/09/22 02:24:44;;;;;;;32.55;20.33;;;;;;;6.55;100.00;102070.88;5068285;28;20021;-78
2022/09/22 02:27:22;;;;;;;36.50;21.50;;;;;;;6.55;100.00;102068.16;5039354;28;20127;-78
2022/09/22 02:29:54;;;;;;;30.35;21.17;;;;;;;6.53;100.00;102060.06;5058538;28;20033;-77
2022/09/22 02:32:33;;;;;;;33.58;19.60;;;;;;;6.55;100.00;102062.72;5076027;28;20034;-77
2022/09/22 02:35:08;;;;;;;31.20;20.25;;;;;;;6.64;100.00;102062.34;5048285;28;20040;-78
2022/09/22 02:38:01;;;;;;;31.98;19.83;;;;;;;6.59;100.00;102064.34;5064000;28;20024;-78
2022/09/22 02:40:37;;;;;;;23.98;17.70;;;;;;;6.61;100.00;102065.19;5065015;28;20052;-78
2022/09/22 02:43:26;;;;;;;28.98;20.50;;;;;;;6.44;100.00;102058.63;5079562;28;20103;-78
2022/09/22 02:46:24;;;;;;;28.20;19.67;;;;;;;6.42;100.00;102060.50;5058283;28;20387;-78
2022/09/22 02:49:09;;;;;;;28.15;19.17;;;;;;;6.40;100.00;102059.69;5035900;28;20029;-78
2022/09/22 02:51:37;;;;;;;23.30;17.88;;;;;;;6.41;100.00;102052.41;5049225;28;20064;-78
2022/09/22 02:54:09;;;;;;;21.63;18.48;;;;;;;6.52;100.00;102057.41;5066945;28;20368;-78
2022/09/22 02:56:41;;;;;;;25.98;17.95;;;;;;;6.43;100.00;102053.25;5068721;28;20025;-77
2022/09/22 02:59:08;;;;;;;28.77;18.70;;;;;;;6.42;100.00;102052.34;5031206;28;20040;-77
2022/09/22 03:01:43;;;;;;;23.08;18.70;;;;;;;6.39;100.00;102047.03;5026995;28;20036;-78
2022/09/22 03:04:10;;;;;;;23.02;16.65;;;;;;;6.35;100.00;102042.69;5045079;28;20563;-78
2022/09/22 03:06:37;;;;;;;23.98;17.13;;;;;;;6.31;100.00;102043.75;5043741;28;20040;-78
2022/09/22 03:09:06;;;;;;;19.45;16.10;;;;;;;6.22;100.00;102044.16;5074267;28;20052;-78
2022/09/22 03:11:31;;;;;;;22.60;15.52;;;;;;;6.16;100.00;102041.69;5058206;28;20071;-78
2022/09/22 03:14:02;;;;;;;23.67;17.20;;;;;;;6.13;100.00;102041.81;5045132;28;20139;-78
2022/09/22 03:16:37;;;;;;;21.20;16.20;;;;;;;6.11;100.00;102041.00;5039994;28;20060;-78
2022/09/22 03:19:03;;;;;;;19.73;15.32;;;;;;;6.11;100.00;102043.72;5067378;28;20048;-78
2022/09/22 03:21:29;;;;;;;20.35;15.32;;;;;;;6.11;100.00;102041.88;5048130;28;20115;-77
2022/09/22 03:23:59;;;;;;;23.20;16.33;;;;;;;6.12;100.00;102046.38;5045374;28;20032;-78
2022/09/22 03:26:27;;;;;;;22.02;16.02;;;;;;;6.05;100.00;102042.13;5024336;28;20155;-78
2022/09/22 03:28:54;;;;;;;27.70;17.45;;;;;;;6.05;100.00;102040.31;5009442;28;20025;-78
2022/09/22 03:31:27;;;;;;;22.63;16.83;;;;;;;6.00;100.00;102031.47;5021516;28;20144;-77
2022/09/22 03:34:01;;;;;;;27.23;18.75;;;;;;;6.00;100.00;102034.19;5047453;28;20037;-78
2022/09/22 03:36:27;;;;;;;27.15;18.33;;;;;;;6.01;100.00;102029.63;5027910;28;20376;-78
2022/09/22 03:39:00;;;;;;;29.60;18.58;;;;;;;6.03;100.00;102028.63;5041108;28;20025;-78
2022/09/22 03:41:28;;;;;;;26.88;18.77;;;;;;;6.06;100.00;102027.59;5023068;28;20181;-78
2022/09/22 03:43:59;;;;;;;32.78;19.20;;;;;;;6.05;100.00;102031.25;5082667;28;20040;-78
2022/09/22 03:46:35;;;;;;;29.88;20.85;;;;;;;6.09;100.00;102029.31;5042479;28;20123;-77
2022/09/22 03:49:04;;;;;;;30.02;20.23;;;;;;;5.99;100.00;102029.69;5037869;28;20064;-78
2022/09/22 03:51:30;;;;;;;24.13;18.80;;;;;;;5.95;100.00;102029.81;5053904;28;20399;-78
2022/09/22 03:53:59;;;;;;;27.83;19.35;;;;;;;5.94;100.00;102028.94;5060303;28;20025;-77
2022/09/22 03:56:25;;;;;;;25.05;18.58;;;;;;;5.94;100.00;102036.22;5063365;28;20035;-78
2022/09/22 03:58:53;;;;;;;26.52;18.38;;;;;;;5.92;100.00;102029.94;5062011;28;20041;-77
2022/09/22 04:01:21;;;;;;;31.52;18.20;;;;;;;6.07;100.00;102029.38;5043059;28;20062;-78
2022/09/22 04:03:48;;;;;;;26.65;16.73;;;;;;;6.02;100.00;102021.41;5052991;28;20086;-79
2022/09/22 04:06:19;;;;;;;30.30;17.30;;;;;;;6.01;100.00;102035.06;5064036;28;20040;-78
2022/09/22 04:08:48;;;;;;;25.80;18.67;;;;;;;5.98;100.00;102025.19;5060526;28;20028;-78
2022/09/22 04:11:15;;;;;;;31.27;19.15;;;;;;;5.99;100.00;102020.66;5046503;28;20104;-78
2022/09/22 04:13:41;;;;;;;29.45;18.35;;;;;;;5.93;100.00;102012.72;5042032;28;20031;-77
2022/09/22 04:16:07;;;;;;;34.72;17.50;;;;;;;6.06;100.00;102016.72;5049007;28;20032;-77
2022/09/22 04:18:39;;;;;;;27.70;16.45;;;;;;;5.95;100.00;102011.72;5062164;28;20036;-76
2022/09/22 04:21:07;;;;;;;21.30;15.48;;;;;;;5.86;100.00;102020.22;5073903;28;20189;-79
2022/09/22 04:23:33;;;;;;;23.05;16.83;;;;;;;5.77;100.00;102009.72;5038047;28;20461;-77
2022/09/22 04:26:01;;;;;;;26.90;17.75;;;;;;;5.74;100.00;102008.03;5039102;28;20119;-79
2022/09/22 04:28:28;;;;;;;23.33;16.35;;;;;;;5.70;100.00;102009.06;5054464;28;20033;-77
2022/09/22 04:31:04;;;;;;;23.67;16.23;;;;;;;5.75;100.00;102017.06;5059734;28;20058;-78
2022/09/22 04:33:39;;;;;;;23.98;16.42;;;;;;;5.80;100.00;102005.03;5062959;28;20437;-78
2022/09/22 04:36:11;;;;;;;28.65;15.52;;;;;;;5.75;100.00;102004.34;5036847;28;20033;-78
2022/09/22 04:38:42;;;;;;;22.17;14.75;;;;;;;5.75;100.00;102001.63;5054597;28;20124;-78
2022/09/22 04:41:14;;;;;;;21.70;16.20;;;;;;;5.74;100.00;102005.31;5058824;28;20053;-78
2022/09/22 04:43:41;;;;;;;32.15;17.42;;;;;;;5.71;100.00;102008.16;5043312;28;20036;-78
2022/09/22 04:46:07;;;;;;;23.77;16.55;;;;;;;5.74;100.00;102010.75;5035323;28;20098;-78
2022/09/22 04:48:33;;;;;;;26.38;18.00;;;;;;;5.69;100.00;102002.78;5037538;28;20028;-77
2022/09/22 04:50:59;;;;;;;34.25;20.38;;;;;;;5.68;100.00;102002.84;5034937;28;20116;-77
2022/09/22 04:53:29;;;;;;;28.50;19.25;;;;;;;5.73;100.00;102008.09;5070584;28;20056;-77
2022/09/22 04:55:56;;;;;;;32.65;18.75;;;;;;;5.69;100.00;102001.91;5048546;28;20399;-78
2022/09/22 04:58:22;;;;;;;32.03;17.80;;;;;;;5.68;100.00;102008.25;5073020;28;20057;-77
2022/09/22 05:00:54;;;;;;;30.17;19.60;;;;;;;5.65;100.00;102011.97;5076087;28;20365;-78
2022/09/22 05:03:26;;;;;;;36.92;19.38;;;;;;;5.65;100.00;102011.09;5049676;28;20037;-78
2022/09/22 05:05:54;;;;;;;30.77;19.63;;;;;;;5.70;100.00;102006.38;5056933;28;20036;-77
2022/09/22 05:08:20;;;;;;;28.83;18.90;;;;;;;5.78;100.00;102006.06;5051971;28;20028;-77
2022/09/22 05:10:49;;;;;;;31.55;19.48;;;;;;;5.89;100.00;102004.66;5072544;28;20047;-77
2022/09/22 05:13:18;;;;;;;35.00;19.25;;;;;;;5.70;100.00;102018.09;5052459;28;20036;-79
2022/09/22 05:15:43;;;;;;;39.50;18.55;;;;;;;5.64;100.00;102021.09;5071265;28;20037;-78
2022/09/22 05:18:11;;;;;;;31.17;16.20;;;;;;;5.63;100.00;102021.16;5055861;28;20493;-77
2022/09/22 05:20:39;;;;;;;23.55;16.63;;;;;;;5.70;100.00;102023.53;5040464;28;20033;-77
2022/09/22 05:23:10;;;;;;;33.60;16.27;;;;;;;5.61;100.00;102028.50;5059440;28;20086;-77
2022/09/22 05:25:41;;;;;;;26.35;15.48;;;;;;;5.57;100.00;102021.38;5073199;28;20032;-77
2022/09/22 05:28:15;;;;;;;23.98;13.95;;;;;;;5.49;100.00;102018.97;5027770;28;20036;-77
2022/09/22 05:30:41;;;;;;;15.68;13.00;;;;;;;5.38;100.00;102022.13;5075148;28;20039;-77
2022/09/22 05:33:11;;;;;;;14.73;11.80;;;;;;;5.40;100.00;102017.50;5061610;28;20513;-77
2022/09/22 05:35:38;;;;;;;19.15;13.02;;;;;;;5.47;100.00;102020.84;5045406;28;20028;-77
2022/09/22 05:38:03;;;;;;;15.75;12.52;;;;;;;5.69;100.00;102024.50;5078786;28;20399;-77
2022/09/22 05:40:34;;;;;;;22.02;11.73;;;;;;;5.68;100.00;102027.28;5042441;28;20063;-78
2022/09/22 05:43:03;;;;;;;19.92;11.85;;;;;;;5.69;100.00;102029.94;5008699;28;20097;-78
2022/09/22 05:45:29;;;;;;;18.73;11.88;;;;;;;5.79;100.00;102029.56;5040553;28;20037;-77
2022/09/22 05:47:55;;;;;;;17.17;12.35;;;;;;;5.87;100.00;102039.19;5060550;28;20033;-77
2022/09/22 05:50:22;;;;;;;15.48;12.00;;;;;;;5.91;100.00;102026.34;5059489;28;20047;-78
2022/09/22 05:53:05;;;;;;;27.38;14.82;;;;;;;5.88;100.00;102034.63;5041241;28;20036;-78
2022/09/22 05:55:34;;;;;;;25.33;14.02;;;;;;;5.91;100.00;102034.50;5081928;28;20033;-77
2022/09/22 05:58:10;;;;;;;18.15;13.13;;;;;;;5.98;100.00;102030.63;5077301;28;20032;-78
2022/09/22 06:00:37;;;;;;;22.40;13.60;;;;;;;5.95;100.00;102028.03;5057108;28;20029;-78
2022/09/22 06:03:11;;;;;;;36.03;14.63;;;;;;;5.97;100.00;102031.59;5038022;28;20466;-78
2022/09/22 06:05:37;;;;;;;20.63;14.77;;;;;;;6.03;100.00;102023.19;5053808;28;20111;-79
2022/09/22 06:08:05;;;;;;;34.08;16.52;;;;;;;6.10;100.00;102034.69;5065283;28;20060;-78
2022/09/22 06:10:37;;;;;;;32.28;18.25;;;;;;;6.19;100.00;102033.41;5064559;28;20486;-77
2022/09/22 06:13:09;;;;;;;31.50;17.65;;;;;;;6.29;100.00;102034.78;5077621;28;20043;-78
2022/09/22 06:15:45;;;;;;;32.55;18.20;;;;;;;6.27;100.00;102031.25;5041288;28;20071;-79
2022/09/22 06:18:12;;;;;;;34.00;18.70;;;;;;;6.33;100.00;102030.09;5052121;28;20077;-81
2022/09/22 06:20:38;;;;;;;32.92;19.33;;;;;;;6.48;100.00;102039.44;5051665;28;20024;-77
2022/09/22 06:23:12;;;;;;;38.55;20.00;;;;;;;6.63;100.00;102036.94;5061956;28;20040;-79
2022/09/22 06:25:38;;;;;;;36.65;20.10;;;;;;;6.74;100.00;102038.31;5068811;28;20037;-79
2022/09/22 06:28:13;;;;;;;38.50;20.95;;;;;;;6.93;100.00;102032.94;5059269;28;20127;-78
2022/09/22 06:30:41;;;;;;;36.45;22.75;;;;;;;6.95;100.00;102022.84;5052239;28;20107;-79
2022/09/22 06:33:12;;;;;;;41.38;22.23;;;;;;;7.13;100.00;102032.03;5061364;28;20035;-78
2022/09/22 06:35:44;;;;;;;43.28;20.77;;;;;;;7.38;100.00;102026.34;5038016;28;20040;-79
2022/09/22 06:38:14;;;;;;;38.83;22.70;;;;;;;7.44;100.00;102028.75;5043632;28;20039;-79
2022/09/22 06:40:41;;;;;;;36.72;23.85;;;;;;;7.59;100.00;102024.47;5062074;28;20044;-80
2022/09/22 06:43:21;;;;;;;41.03;24.30;;;;;;;7.83;100.00;102027.81;5028846;28;20033;-79
2022/09/22 06:45:49;;;;;;;36.78;23.13;;;;;;;8.22;100.00;102034.13;5088243;28;20395;-79
2022/09/22 06:48:24;;;;;;;30.83;20.80;;;;;;;8.27;100.00;102035.63;5026433;28;20361;-79
2022/09/22 06:50:52;;;;;;;31.95;19.55;;;;;;;8.61;100.00;102041.28;5049383;28;20036;-79
2022/09/22 06:53:23;;;;;;;30.00;17.85;;;;;;;8.73;100.00;102042.47;5060124;28;20036;-78
2022/09/22 06:55:52;;;;;;;32.85;16.48;;;;;;;8.90;100.00;102031.53;5076991;28;20040;-78
2022/09/22 06:58:29;;;;;;;30.40;16.17;;;;;;;9.19;100.00;102026.34;5060993;28;20048;-77
2022/09/22 07:00:57;;;;;;;22.73;14.38;;;;;;;8.84;100.00;102031.88;5010984;28;20086;-77
2022/09/22 07:03:28;;;;;;;24.77;14.27;;;;;;;8.98;100.00;102020.19;5051403;28;20025;-77
2022/09/22 07:06:01;;;;;;;28.98;14.77;;;;;;;9.14;100.00;102029.31;5055898;28;20032;-77
2022/09/22 07:08:29;;;;;;;28.15;15.32;;;;;;;9.23;100.00;102027.06;5055149;28;20033;-78
2022/09/22 07:11:08;;;;;;;26.42;13.95;;;;;;;9.28;100.00;102024.97;5041578;28;20115;-77
2022/09/22 07:13:40;;;;;;;31.27;14.80;;;;;;;9.28;100.00;102014.94;5062103;28;20119;-78
2022/09/22 07:16:14;;;;;;;31.80;14.90;;;;;;;9.28;100.00;102025.88;5068341;28;20028;-79
2022/09/22 07:18:42;;;;;;;30.08;14.80;;;;;;;9.38;100.00;102024.38;5058061;28;20048;-78
2022/09/22 07:21:19;;;;;;;33.63;14.65;;;;;;;9.49;100.00;102023.75;5059390;28;20037;-80
2022/09/22 07:23:56;;;;;;;30.20;13.88;;;;;;;9.55;100.00;102025.28;5042133;28;20078;-81
2022/09/22 07:26:27;;;;;;;28.58;13.52;;;;;;;9.43;100.00;102018.66;5078756;28;20398;-80
2022/09/22 07:28:55;;;;;;;24.80;14.60;;;;;;;9.51;100.00;102029.16;5060600;28;20025;-81
2022/09/22 07:31:22;;;;;;;30.85;14.13;;;;;;;9.56;100.00;102025.22;5058217;28;20037;-80
2022/09/22 07:33:58;;;;;;;28.48;13.73;;;;;;;9.69;100.00;102021.75;5043573;28;20029;-81
2022/09/22 07:36:28;;;;;;;33.90;14.23;;;;;;;9.87;100.00;102025.31;5045070;28;20035;-80
2022/09/22 07:39:05;;;;;;;25.42;12.77;;;;;;;10.19;100.00;102028.03;5080159;28;20024;-80
2022/09/22 07:41:40;;;;;;;26.90;12.63;;;;;;;10.41;100.00;102013.97;5054674;28;20127;-80
2022/09/22 07:46:58;;;;;;;21.00;12.73;;;;;;;10.76;100.00;102021.94;5072408;28;20032;-81
2022/09/22 07:49:25;;;;;;;25.13;12.98;;;;;;;11.05;100.00;102031.06;5045487;28;20378;-81
2022/09/22 07:51:53;;;;;;;20.25;12.13;;;;;;;11.30;100.00;102026.81;5042383;28;20024;-81
2022/09/22 07:54:20;;;;;;;23.02;10.93;;;;;;;11.54;100.00;102035.31;5049746;28;20036;-81
2022/09/22 07:56:48;;;;;;;22.45;10.40;;;;;;;11.64;100.00;102035.59;5079429;28;20039;-81
2022/09/22 07:59:21;;;;;;;16.85;9.60;;;;;;;11.67;100.00;102030.81;5064075;28;20033;-81
2022/09/22 08:01:49;;;;;;;19.90;10.18;;;;;;;12.23;100.00;102022.59;5062485;28;20037;-81
2022/09/22 08:04:21;;;;;;;28.13;9.65;;;;;;;12.21;100.00;102027.28;5045847;28;20476;-81
2022/09/22 08:06:54;;;;;;;17.08;9.68;;;;;;;12.20;100.00;102016.41;5073128;28;20020;-81
2022/09/22 08:09:24;;;;;;;16.75;10.90;;;;;;;12.35;100.00;102022.72;5088405;28;20020;-81
2022/09/22 08:11:53;;;;;;;20.65;9.68;;;;;;;13.12;100.00;102025.63;5063045;28;20048;-82
2022/09/22 08:14:21;;;;;;;16.60;8.85;;;;;;;13.64;100.00;102021.03;5068727;28;20067;-81
2022/09/22 08:16:52;;;;;;;21.63;11.02;;;;;;;13.93;100.00;102028.00;5068690;28;20029;-82
2022/09/22 08:19:21;;;;;;;23.17;9.00;;;;;;;13.82;100.00;102027.91;5032918;28;20450;-81
2022/09/22 08:21:52;;;;;;;;;;;;;;;14.37;100.00;102024.78;5043586;28;20040;-81
2022/09/22 08:24:23;;;;;;;17.35;9.57;;;;;;;14.37;100.00;102025.66;5067857;28;19908;-80
2022/09/22 08:26:51;;;;;;;21.48;9.60;;;;;;;14.83;100.00;102021.22;5042134;28;20038;-81
2022/09/22 08:29:18;;;;;;;18.60;9.00;;;;;;;14.57;100.00;102017.72;5079028;28;20035;-81
2022/09/22 08:31:46;;;;;;;15.50;8.82;;;;;;;14.96;100.00;102015.63;5047549;28;20017;-80
2022/09/22 08:34:18;;;;;;;13.65;8.77;;;;;;;15.37;100.00;102019.72;5072090;28;20053;-80
2022/09/22 08:36:47;;;;;;;22.33;8.30;;;;;;;15.76;100.00;102010.06;5058879;28;20032;-80
2022/09/22 08:39:14;;;;;;;14.73;8.00;;;;;;;16.25;100.00;102007.84;5050837;28;20041;-79
2022/09/22 08:41:47;;;;;;;17.05;7.70;;;;;;;16.69;100.00;102010.56;5012757;28;20488;-79
2022/09/22 08:44:23;;;;;;;23.60;8.45;;;;;;;16.13;100.00;102017.16;5045716;28;20128;-80
2022/09/22 08:46:51;;;;;;;13.18;7.50;;;;;;;16.69;100.00;102003.16;5066786;28;20108;-81
2022/09/22 08:52:52;;;;;;;13.38;7.40;;;;;;;16.90;100.00;102011.50;5092401;28;20040;-81
2022/09/22 08:55:23;;;;;;;13.77;6.72;;;;;;;17.95;100.00;102009.56;5062860;28;20407;-81
2022/09/22 08:58:11;;;;;;;12.77;7.25;;;;;;;16.89;100.00;102006.09;5046244;28;20480;-80
2022/09/22 09:00:51;;;;;;;12.00;7.25;;;;;;;16.94;100.00;101997.38;5061237;28;20092;-80
2022/09/22 09:03:30;;;;;;;16.00;7.82;;;;;;;17.26;100.00;102009.22;5064349;28;20060;-79
2022/09/22 09:06:22;;;;;;;15.63;7.78;;;;;;;17.59;100.00;102011.88;5081047;28;20048;-79
2022/09/22 09:09:12;;;;;;;14.43;6.68;;;;;;;17.89;100.00;102013.78;5045059;28;20040;-79
2022/09/22 09:11:46;;;;;;;9.07;5.78;;;;;;;17.62;100.00;102006.06;5045653;28;20028;-79
2022/09/22 09:14:37;;;;;;;12.88;6.57;;;;;;;17.64;100.00;102007.69;5061336;28;20055;-79
2022/09/22 09:17:14;;;;;;;14.52;6.57;;;;;;;17.61;100.00;102007.97;5063097;28;20024;-80
2022/09/22 09:19:42;;;;;;;15.05;6.25;;;;;;;17.96;100.00;102014.09;5062987;28;20036;-80
2022/09/22 09:22:24;;;;;;;10.07;5.63;;;;;;;17.99;100.00;102011.91;5080558;28;20035;-80
2022/09/22 09:24:57;;;;;;;13.48;5.80;;;;;;;17.99;100.00;102006.38;5075789;28;20036;-80
2022/09/22 09:27:39;;;;;;;13.80;5.00;;;;;;;18.08;100.00;102009.31;5061765;28;20071;-80
2022/09/22 09:30:19;;;;;;;7.57;4.70;;;;;;;18.49;100.00;102013.72;5056481;28;20025;-80
2022/09/22 09:33:09;;;;;;;10.15;4.32;;;;;;;18.42;100.00;102009.81;5062623;28;20060;-80
2022/09/22 09:35:48;;;;;;;13.40;4.30;;;;;;;18.33;100.00;102008.78;5062294;28;20044;-80
2022/09/22 09:38:34;;;;;;;14.65;3.88;;;;;;;18.47;100.00;102007.47;5066462;28;20055;-79
2022/09/22 09:41:14;;;;;;;8.00;4.32;;;;;;;18.26;100.00;102001.19;5047790;28;20080;-80
2022/09/22 09:43:50;;;;;;;8.23;3.55;;;;;;;18.86;100.00;102001.94;5062026;28;20111;-80
2022/09/22 09:47:01;;;;;;;6.50;3.55;;;;;;;18.85;100.00;102007.63;5058186;28;20100;-80
2022/09/22 09:49:35;;;;;;;8.38;3.33;;;;;;;18.85;100.00;101997.41;5056339;28;20033;-81
2022/09/22 09:52:09;;;;;;;5.25;3.45;;;;;;;19.46;100.00;102007.22;5048090;28;20039;-81
2022/09/22 09:54:49;;;;;;;7.22;3.83;;;;;;;18.93;100.00;102007.78;5083146;28;20028;-81
2022/09/22 09:57:19;;;;;;;;;;;;;;;18.80;100.00;102005.28;5081915;28;20029;-81
2022/09/22 10:02:46;;;;;;;12.15;3.20;;;;;;;18.88;100.00;101990.69;5063315;28;20039;-81
2022/09/22 10:05:15;;;;;;;6.07;3.40;;;;;;;19.00;98.06;101994.19;5064256;28;20031;-82
2022/09/22 10:07:47;;;;;;;6.53;2.80;;;;;;;18.92;100.00;101973.59;5055604;28;20049;-82
2022/09/22 10:10:34;;;;;;;7.72;2.80;;;;;;;18.94;100.00;101986.44;5047176;28;20025;-82
2022/09/22 10:13:04;;;;;;;8.25;3.45;;;;;;;19.24;100.00;101972.34;5064546;28;20036;-82
2022/09/22 10:15:31;;;;;;;9.25;3.00;;;;;;;19.14;100.00;101965.94;5050962;28;20044;-82
2022/09/22 10:18:23;;;;;;;5.47;1.95;;;;;;;19.50;97.97;101976.38;5047503;28;20068;-83
2022/09/22 10:21:05;;;;;;;5.13;2.20;;;;;;;19.34;97.02;101977.88;5061831;28;20059;-82
2022/09/22 10:23:33;;;;;;;6.20;2.88;;;;;;;19.08;88.57;101978.50;5063611;28;20028;-81
2022/09/22 10:26:29;;;;;;;4.78;2.15;;;;;;;19.53;87.58;101974.16;5030578;28;20032;-81
2022/09/22 10:29:11;;;;;;;7.05;2.20;;;;;;;19.40;84.56;101974.50;5055263;28;20036;-81
2022/09/22 10:32:14;;;;;;;2.60;1.95;;;;;;;19.55;81.24;101974.00;5046336;28;20038;-81
2022/09/22 10:34:50;;;;;;;5.55;1.88;;;;;;;19.48;75.95;101968.19;5054116;28;20040;-81
2022/09/22 10:37:22;;;;;;;20.50;3.05;;;;;;;19.20;78.84;101964.47;5080638;28;20086;-81
2022/09/22 10:39:50;;;;;;;4.87;2.20;;;;;;;19.49;73.74;101960.72;5067749;28;20067;-81
2022/09/22 10:42:35;;;;;;;4.20;2.00;;;;;;;19.85;70.29;101958.94;5021942;28;20040;-81
2022/09/22 10:45:11;;;;;;;4.55;2.33;;;;;;;19.31;80.46;101950.41;5062751;28;20032;-81
2022/09/22 10:47:56;;;;;;;4.50;2.00;;;;;;;19.35;78.30;101945.41;5080797;28;20029;-81
2022/09/22 10:50:40;;;;;;;3.08;2.38;;;;;;;19.65;73.28;101947.03;5047988;28;20033;-81
2022/09/22 10:53:30;;;;;;;5.20;2.35;;;;;;;19.71;70.60;101962.19;5061328;28;20068;-80
2022/09/22 10:56:20;;;;;;;4.97;2.60;;;;;;;19.28;79.68;101945.13;5061725;28;20043;-81
2022/09/22 10:58:54;;;;;;;2.92;2.42;;;;;;;19.18;78.85;101942.41;5043716;28;20033;-80
2022/09/22 11:01:37;;;;;;;3.80;2.50;;;;;;;19.28;74.87;101940.47;5056020;28;20148;-80
2022/09/22 11:04:25;;;;;;;3.72;2.30;;;;;;;19.67;70.04;101944.09;5056165;28;20036;-80
2022/09/22 11:13:25;;;;;;;5.70;2.20;;;;;;;18.68;72.16;101937.09;5071425;28;20047;-80
2022/09/22 11:16:11;;;;;;;5.60;1.98;;;;;;;18.75;76.47;101941.03;5078189;28;20539;-80
2022/09/22 11:18:48;;;;;;;7.00;2.03;;;;;;;18.44;77.46;101934.78;5061213;28;20391;-81
2022/09/22 11:21:36;;;;;;;5.55;2.58;;;;;;;18.67;75.24;101938.13;5059879;28;20040;-81
2022/09/22 11:24:13;;;;;;;3.22;2.03;;;;;;;18.82;78.63;101938.53;5079346;28;20027;-81
2022/09/22 11:26:46;;;;;;;6.47;2.10;;;;;;;18.69;75.63;101927.72;5071059;28;20025;-80
2022/09/22 11:29:47;;;;;;;3.78;2.33;;;;;;;19.16;73.46;101921.38;5062927;28;20430;-81
2022/09/22 11:32:54;;;;;;;2.20;2.00;;;;;;;18.67;71.34;101929.78;5051549;28;20031;-80
2022/09/22 11:35:49;;;;;;;5.10;2.45;;;;;;;18.54;70.82;101922.66;5065259;28;20036;-83
2022/09/22 11:38:37;;;;;;;6.78;2.70;;;;;;;18.24;74.56;101929.22;5077989;28;20494;-81
2022/09/22 11:41:33;;;;;;;4.50;2.00;;;;;;;18.86;71.18;101915.06;5070000;28;20048;-81
2022/09/22 11:44:22;;;;;;;;;;;;;;;18.54;71.90;101914.34;5059001;28;20028;-81
2022/09/22 11:47:14;;;;;;;3.10;1.98;;;;;;;18.60;69.88;101910.09;5046534;28;20006;-81
2022/09/22 11:50:14;;;;;;;3.20;2.30;;;;;;;18.87;75.28;101906.56;5080052;28;20028;-81
2022/09/22 11:53:11;;;;;;;6.15;2.03;;;;;;;18.46;71.48;101907.75;5059678;28;20036;-82
2022/09/22 11:56:03;;;;;;;3.90;2.13;;;;;;;18.26;70.01;101901.38;5078464;28;20032;-79
2022/09/22 11:58:31;;;;;;;3.78;2.20;;;;;;;18.19;72.16;101882.53;5060888;28;20118;-83
2022/09/22 12:01:06;;;;;;;4.57;2.08;;;;;;;18.15;72.97;101886.63;5045938;28;20021;-81